createdAt,value
2022-12-29T00:01:23.582Z,8.90
2022-12-29T00:03:50.240Z,8.90
2022-12-29T00:06:16.817Z,8.90
2022-12-29T00:08:43.441Z,8.90
2022-12-29T00:11:10.648Z,8.90
2022-12-29T00:13:55.935Z,8.90
2022-12-29T00:16:22.522Z,8.90
2022-12-29T00:18:49.206Z,8.90
2022-12-29T00:21:34.526Z,8.90
2022-12-29T00:24:09.811Z,8.90
2022-12-29T00:26:55.058Z,9.00
2022-12-29T00:29:40.353Z,8.90
2022-12-29T00:32:26.655Z,9.00
2022-12-29T00:35:11.600Z,9.00
2022-12-29T00:38:00.534Z,9.00
2022-12-29T00:40:45.747Z,9.00
2022-12-29T00:43:31.055Z,9.10
2022-12-29T00:45:57.666Z,9.10
2022-12-29T00:48:43.012Z,9.10
2022-12-29T00:51:09.571Z,9.10
2022-12-29T00:53:36.113Z,9.10
2022-12-29T00:56:02.715Z,9.10
2022-12-29T00:58:29.520Z,9.10
2022-12-29T01:01:08.430Z,9.20
2022-12-29T01:03:35.523Z,9.20
2022-12-29T01:06:02.603Z,9.20
2022-12-29T01:08:29.396Z,9.20
2022-12-29T01:10:59.669Z,9.20
2022-12-29T01:13:26.245Z,9.20
2022-12-29T01:15:53.270Z,9.20
2022-12-29T01:18:20.000Z,9.10
2022-12-29T01:20:46.581Z,9.20
2022-12-29T01:23:13.125Z,9.20
2022-12-29T01:25:40.390Z,9.20
2022-12-29T01:28:09.085Z,9.20
2022-12-29T01:30:35.938Z,9.30
2022-12-29T01:33:02.495Z,9.30
2022-12-29T01:35:29.049Z,9.30
2022-12-29T01:37:55.596Z,9.30
2022-12-29T01:40:22.147Z,9.30
2022-12-29T01:42:48.696Z,9.40
2022-12-29T01:45:15.941Z,9.40
2022-12-29T01:47:45.573Z,9.40
2022-12-29T01:50:24.319Z,9.40
2022-12-29T01:52:59.068Z,9.50
2022-12-29T01:55:26.341Z,9.50
2022-12-29T01:57:52.892Z,9.50
2022-12-29T02:00:19.678Z,9.50
2022-12-29T02:02:47.273Z,9.50
2022-12-29T02:05:21.147Z,9.60
2022-12-29T02:07:47.702Z,9.60
2022-12-29T02:10:14.324Z,9.60
2022-12-29T02:12:40.929Z,9.60
2022-12-29T02:15:07.744Z,9.60
2022-12-29T02:17:53.233Z,9.60
2022-12-29T02:20:19.790Z,9.70
2022-12-29T02:22:53.909Z,9.70
2022-12-29T02:25:20.410Z,9.70
2022-12-29T02:27:54.868Z,9.70
2022-12-29T02:30:40.073Z,9.70
2022-12-29T02:33:09.629Z,9.70
2022-12-29T02:35:37.142Z,9.70
2022-12-29T02:38:14.114Z,9.70
2022-12-29T02:40:52.753Z,9.80
2022-12-29T02:43:19.329Z,9.70
2022-12-29T02:45:52.863Z,9.70
2022-12-29T02:48:37.981Z,9.70
2022-12-29T02:51:05.619Z,9.70
2022-12-29T02:53:51.321Z,9.60
2022-12-29T02:56:18.107Z,9.60
2022-12-29T02:58:44.997Z,9.60
2022-12-29T03:01:14.704Z,9.70
2022-12-29T03:03:59.977Z,9.70
2022-12-29T03:06:26.485Z,9.70
2022-12-29T03:08:56.986Z,9.70
2022-12-29T03:11:42.408Z,9.60
2022-12-29T03:14:34.209Z,9.60
2022-12-29T03:17:02.098Z,9.60
2022-12-29T03:19:29.398Z,9.50
2022-12-29T03:22:18.894Z,9.50
2022-12-29T03:24:47.606Z,9.50
2022-12-29T03:27:16.317Z,9.60
2022-12-29T03:29:46.623Z,9.60
2022-12-29T03:32:13.446Z,9.60
2022-12-29T03:34:39.988Z,9.60
2022-12-29T03:37:13.760Z,9.60
2022-12-29T03:39:40.847Z,9.60
2022-12-29T03:42:07.673Z,9.70
2022-12-29T03:44:35.087Z,9.60
2022-12-29T03:47:01.671Z,9.60
2022-12-29T03:49:28.261Z,9.70
2022-12-29T03:51:54.836Z,9.60
2022-12-29T03:54:21.391Z,9.60
2022-12-29T03:56:47.949Z,9.60
2022-12-29T03:59:14.506Z,9.60
2022-12-29T04:01:41.112Z,9.60
2022-12-29T04:04:07.723Z,9.60
2022-12-29T04:06:35.350Z,9.60
2022-12-29T04:09:02.188Z,9.60
2022-12-29T04:11:33.028Z,9.60
2022-12-29T04:14:00.044Z,9.60
2022-12-29T04:16:26.661Z,9.70
2022-12-29T04:18:53.230Z,9.70
2022-12-29T04:21:19.795Z,9.70
2022-12-29T04:23:46.450Z,9.70
2022-12-29T04:26:13.073Z,9.70
2022-12-29T04:28:39.634Z,9.70
2022-12-29T04:31:06.488Z,9.70
2022-12-29T04:33:33.092Z,9.70
2022-12-29T04:35:59.657Z,9.70
2022-12-29T04:38:26.221Z,9.80
2022-12-29T04:40:52.799Z,9.90
2022-12-29T04:43:25.382Z,9.90
2022-12-29T04:45:52.023Z,9.90
2022-12-29T04:48:18.600Z,9.90
2022-12-29T04:50:45.190Z,9.90
2022-12-29T04:53:11.766Z,9.90
2022-12-29T04:55:38.316Z,9.90
2022-12-29T04:58:04.886Z,9.90
2022-12-29T05:00:31.465Z,9.80
2022-12-29T05:02:58.239Z,9.80
2022-12-29T05:05:25.009Z,9.80
2022-12-29T05:07:51.562Z,9.70
2022-12-29T05:10:18.109Z,9.70
2022-12-29T05:12:44.938Z,9.70
2022-12-29T05:15:11.565Z,9.70
2022-12-29T05:17:38.125Z,9.70
2022-12-29T05:20:05.531Z,9.70
2022-12-29T05:22:32.144Z,9.70
2022-12-29T05:24:59.648Z,9.70
2022-12-29T05:27:26.292Z,9.70
2022-12-29T05:29:52.943Z,9.70
2022-12-29T05:32:19.563Z,9.70
2022-12-29T05:34:46.093Z,9.70
2022-12-29T05:37:12.842Z,9.70
2022-12-29T05:39:39.376Z,9.80
2022-12-29T05:42:06.001Z,9.80
2022-12-29T05:44:32.546Z,9.80
2022-12-29T05:46:59.159Z,9.80
2022-12-29T05:49:25.837Z,9.90
2022-12-29T05:51:52.454Z,9.90
2022-12-29T05:54:18.996Z,9.90
2022-12-29T05:56:45.552Z,9.90
2022-12-29T05:59:12.149Z,9.90
2022-12-29T06:01:38.849Z,9.90
2022-12-29T06:04:05.511Z,9.80
2022-12-29T06:06:32.060Z,9.80
2022-12-29T06:08:58.613Z,9.70
2022-12-29T06:11:25.149Z,9.70
2022-12-29T06:13:51.711Z,9.70
2022-12-29T06:16:18.395Z,9.70
2022-12-29T06:18:45.014Z,9.70
2022-12-29T06:21:11.555Z,9.70
2022-12-29T06:23:38.136Z,9.60
2022-12-29T06:26:04.737Z,9.70
2022-12-29T06:28:31.301Z,9.70
2022-12-29T06:30:58.419Z,9.70
2022-12-29T06:33:25.075Z,9.70
2022-12-29T06:35:51.622Z,9.70
2022-12-29T06:38:18.184Z,9.70
2022-12-29T06:40:45.953Z,9.70
2022-12-29T06:43:12.915Z,9.80
2022-12-29T06:45:40.829Z,9.80
2022-12-29T06:48:07.409Z,9.80
2022-12-29T06:50:33.944Z,9.70
2022-12-29T06:53:00.496Z,9.70
2022-12-29T06:55:27.064Z,9.70
2022-12-29T06:57:57.185Z,9.60
2022-12-29T07:00:24.419Z,9.60
2022-12-29T07:02:51.309Z,9.50
2022-12-29T07:05:17.945Z,9.50
2022-12-29T07:07:44.710Z,9.50
2022-12-29T07:10:11.283Z,9.50
2022-12-29T07:12:37.851Z,9.50
2022-12-29T07:15:04.463Z,9.50
2022-12-29T07:17:31.031Z,9.40
2022-12-29T07:19:57.720Z,9.40
2022-12-29T07:22:24.294Z,9.40
2022-12-29T07:24:50.890Z,9.40
2022-12-29T07:27:17.452Z,9.40
2022-12-29T07:29:44.002Z,9.40
2022-12-29T07:32:10.624Z,9.40
2022-12-29T07:34:37.203Z,9.40
2022-12-29T07:37:03.813Z,9.40
2022-12-29T07:39:30.485Z,9.40
2022-12-29T07:42:02.677Z,9.50
2022-12-29T07:44:31.285Z,9.50
2022-12-29T07:46:58.858Z,9.50
2022-12-29T07:49:25.884Z,9.50
2022-12-29T07:51:53.311Z,9.50
2022-12-29T07:54:19.872Z,9.60
2022-12-29T07:56:46.511Z,9.60
2022-12-29T07:59:13.114Z,9.60
2022-12-29T08:01:39.859Z,9.60
2022-12-29T08:04:06.575Z,9.60
2022-12-29T08:06:33.198Z,9.60
2022-12-29T08:09:07.873Z,9.60
2022-12-29T08:11:39.323Z,9.60
2022-12-29T08:14:05.975Z,9.60
2022-12-29T08:16:33.388Z,9.60
2022-12-29T08:19:00.039Z,9.60
2022-12-29T08:21:27.822Z,9.70
2022-12-29T08:23:54.400Z,9.70
2022-12-29T08:26:20.979Z,9.70
2022-12-29T08:28:47.865Z,9.70
2022-12-29T08:31:14.427Z,9.70
2022-12-29T08:33:41.003Z,9.70
2022-12-29T08:36:07.909Z,9.70
2022-12-29T08:38:34.492Z,9.70
2022-12-29T08:41:04.452Z,9.70
2022-12-29T08:43:31.015Z,9.70
2022-12-29T08:46:00.831Z,9.70
2022-12-29T08:48:27.514Z,9.70
2022-12-29T08:50:54.080Z,9.70
2022-12-29T08:53:20.660Z,9.70
2022-12-29T08:55:47.525Z,9.70
2022-12-29T08:58:15.533Z,9.60
2022-12-29T09:00:42.521Z,9.50
2022-12-29T09:03:09.370Z,9.30
2022-12-29T09:05:36.138Z,9.10
2022-12-29T09:08:02.745Z,9.00
2022-12-29T09:10:29.293Z,9.00
2022-12-29T09:12:55.994Z,9.00
2022-12-29T09:15:22.539Z,9.10
2022-12-29T09:17:49.138Z,9.10
2022-12-29T09:20:19.033Z,9.10
2022-12-29T09:22:45.655Z,9.10
2022-12-29T09:25:12.245Z,9.20
2022-12-29T09:27:39.321Z,9.20
2022-12-29T09:30:07.390Z,9.30
2022-12-29T09:32:35.359Z,9.40
2022-12-29T09:35:04.827Z,9.50
2022-12-29T09:37:31.375Z,9.50
2022-12-29T09:39:57.928Z,9.60
2022-12-29T09:42:35.587Z,9.80
2022-12-29T09:45:11.404Z,9.90
2022-12-29T09:47:37.994Z,10.00
2022-12-29T09:50:11.564Z,10.00
2022-12-29T09:52:40.264Z,10.10
2022-12-29T09:55:13.793Z,10.10
2022-12-29T09:57:48.152Z,10.20
2022-12-29T10:00:15.812Z,10.20
2022-12-29T10:02:47.510Z,10.40
2022-12-29T10:05:17.776Z,10.70
2022-12-29T10:08:03.537Z,10.80
2022-12-29T10:10:38.211Z,11.00
2022-12-29T10:13:10.705Z,11.20
2022-12-29T10:15:41.945Z,11.10
2022-12-29T10:18:30.846Z,11.10
2022-12-29T10:21:06.716Z,10.90
2022-12-29T10:23:34.879Z,10.80
2022-12-29T10:26:01.758Z,10.80
2022-12-29T10:28:35.216Z,10.90
2022-12-29T10:31:08.312Z,11.00
2022-12-29T10:33:36.728Z,11.00
2022-12-29T10:36:05.730Z,11.00
2022-12-29T10:38:36.977Z,11.00
2022-12-29T10:41:06.542Z,11.00
2022-12-29T10:43:44.547Z,11.00
2022-12-29T10:46:12.239Z,10.90
2022-12-29T10:48:38.860Z,10.80
2022-12-29T10:51:06.036Z,10.70
2022-12-29T10:53:38.761Z,10.70
2022-12-29T10:56:05.701Z,10.60
2022-12-29T10:58:33.434Z,10.60
2022-12-29T11:01:00.759Z,10.70
2022-12-29T11:03:47.057Z,10.80
2022-12-29T11:06:14.748Z,10.90
2022-12-29T11:09:00.246Z,11.00
2022-12-29T11:11:28.127Z,11.00
2022-12-29T11:14:03.595Z,11.00
2022-12-29T11:16:31.836Z,11.00
2022-12-29T11:18:58.833Z,11.00
2022-12-29T11:21:35.079Z,11.10
2022-12-29T11:24:02.748Z,11.20
2022-12-29T11:26:34.046Z,11.20
2022-12-29T11:29:16.896Z,11.10
2022-12-29T11:31:56.629Z,11.10
2022-12-29T11:34:34.024Z,11.20
2022-12-29T11:37:03.598Z,11.20
2022-12-29T11:39:31.450Z,11.20
2022-12-29T11:41:58.512Z,11.10
2022-12-29T11:44:25.086Z,11.10
2022-12-29T11:46:52.030Z,11.10
2022-12-29T11:49:22.885Z,11.20
2022-12-29T11:51:51.105Z,11.10
2022-12-29T11:54:23.238Z,11.20
2022-12-29T11:56:49.790Z,11.20
2022-12-29T11:59:28.562Z,11.20
2022-12-29T12:01:55.480Z,11.10
2022-12-29T12:04:31.771Z,11.10
2022-12-29T12:07:03.033Z,11.10
2022-12-29T12:09:33.718Z,11.10
2022-12-29T12:12:00.291Z,11.00
2022-12-29T12:14:26.835Z,11.00
2022-12-29T12:16:57.134Z,11.10
2022-12-29T12:19:39.634Z,11.00
2022-12-29T12:22:11.806Z,11.10
2022-12-29T12:24:57.207Z,11.10
2022-12-29T12:27:31.349Z,11.00
2022-12-29T12:29:57.887Z,11.00
2022-12-29T12:32:45.456Z,11.00
2022-12-29T12:38:17.179Z,11.00
2022-12-29T12:40:47.772Z,11.00
2022-12-29T12:43:19.213Z,11.00
2022-12-29T12:45:48.894Z,11.00
2022-12-29T12:48:34.296Z,11.00
2022-12-29T12:51:22.084Z,11.00
2022-12-29T12:53:59.323Z,11.00
2022-12-29T12:56:32.025Z,11.00
2022-12-29T12:59:10.439Z,11.00
2022-12-29T13:01:39.928Z,11.00
2022-12-29T13:04:21.855Z,11.00
2022-12-29T13:06:50.903Z,10.90
2022-12-29T13:09:41.909Z,11.00
2022-12-29T13:12:16.050Z,10.90
2022-12-29T13:14:45.725Z,11.00
2022-12-29T13:17:31.041Z,11.00
2022-12-29T13:20:01.706Z,11.10
2022-12-29T13:22:28.184Z,11.10
2022-12-29T13:24:59.283Z,11.20
2022-12-29T13:27:44.449Z,11.20
2022-12-29T13:30:16.567Z,11.20
2022-12-29T13:32:46.707Z,11.10
2022-12-29T13:35:26.369Z,11.10
2022-12-29T13:37:57.855Z,11.10
2022-12-29T13:40:25.368Z,11.10
2022-12-29T13:42:52.825Z,11.00
2022-12-29T13:45:20.285Z,11.00
2022-12-29T13:47:53.043Z,11.00
2022-12-29T13:50:20.840Z,11.00
2022-12-29T13:52:52.778Z,11.00
2022-12-29T13:55:26.132Z,11.00
2022-12-29T13:57:52.634Z,11.00
2022-12-29T14:00:19.603Z,11.00
2022-12-29T14:02:46.324Z,11.00
2022-12-29T14:05:19.186Z,10.90
2022-12-29T14:07:45.753Z,10.90
2022-12-29T14:10:27.137Z,10.90
2022-12-29T14:12:53.953Z,10.90
2022-12-29T14:15:22.146Z,10.90
2022-12-29T14:18:01.096Z,10.90
2022-12-29T14:20:27.651Z,10.90
2022-12-29T14:22:58.544Z,10.90
2022-12-29T14:25:43.963Z,10.90
2022-12-29T14:28:20.723Z,10.90
2022-12-29T14:30:48.697Z,10.80
2022-12-29T14:33:15.654Z,10.80
2022-12-29T14:35:43.064Z,10.80
2022-12-29T14:38:16.673Z,10.80
2022-12-29T14:40:43.234Z,10.80
2022-12-29T14:43:13.600Z,10.80
2022-12-29T14:45:40.915Z,10.80
2022-12-29T14:48:26.092Z,10.70
2022-12-29T14:50:52.655Z,10.70
2022-12-29T14:53:37.978Z,10.70
2022-12-29T14:56:04.532Z,10.60
2022-12-29T14:58:32.029Z,10.60
2022-12-29T15:00:59.031Z,10.50
2022-12-29T15:03:25.606Z,10.50
2022-12-29T15:05:52.799Z,10.50
2022-12-29T15:08:23.706Z,10.40
2022-12-29T15:10:54.178Z,10.40
2022-12-29T15:13:34.038Z,10.30
2022-12-29T15:16:00.669Z,10.30
2022-12-29T15:18:28.014Z,10.30
2022-12-29T15:20:55.819Z,10.30
2022-12-29T15:23:22.437Z,10.30
2022-12-29T15:25:56.370Z,10.30
2022-12-29T15:28:22.922Z,10.30
2022-12-29T15:31:16.209Z,10.30
2022-12-29T15:33:43.874Z,10.20
2022-12-29T15:36:15.978Z,10.20
2022-12-29T15:38:42.521Z,10.10
2022-12-29T15:41:29.322Z,10.10
2022-12-29T15:44:01.923Z,10.10
2022-12-29T15:46:28.796Z,10.10
2022-12-29T15:48:55.421Z,10.00
2022-12-29T15:51:24.529Z,10.00
2022-12-29T15:53:51.310Z,10.00
2022-12-29T15:56:17.986Z,10.00
2022-12-29T15:58:45.651Z,10.00
2022-12-29T16:01:25.884Z,10.10
2022-12-29T16:03:53.536Z,10.00
2022-12-29T16:06:26.396Z,10.00
2022-12-29T16:09:03.508Z,9.80
2022-12-29T16:11:33.061Z,9.80
2022-12-29T16:13:59.602Z,9.70
2022-12-29T16:16:27.684Z,9.70
2022-12-29T16:18:57.700Z,9.70
2022-12-29T16:21:32.348Z,9.70
2022-12-29T16:24:01.037Z,9.60
2022-12-29T16:26:27.667Z,9.70
2022-12-29T16:28:58.275Z,9.60
2022-12-29T16:31:25.583Z,9.60
2022-12-29T16:33:53.145Z,9.50
2022-12-29T16:36:28.934Z,9.50
2022-12-29T16:39:14.353Z,9.50
2022-12-29T16:41:40.963Z,9.50
2022-12-29T16:44:33.893Z,9.40
2022-12-29T16:47:01.424Z,9.40
2022-12-29T16:49:28.040Z,9.30
2022-12-29T16:51:57.882Z,9.30
2022-12-29T16:54:36.892Z,9.20
2022-12-29T16:57:03.577Z,9.10
2022-12-29T16:59:34.469Z,9.00
2022-12-29T17:02:02.191Z,9.00
2022-12-29T17:04:29.842Z,8.80
2022-12-29T17:06:56.720Z,8.80
2022-12-29T17:09:24.640Z,8.80
2022-12-29T17:12:08.770Z,8.80
2022-12-29T17:14:46.694Z,8.80
2022-12-29T17:17:17.591Z,8.90
2022-12-29T17:19:48.737Z,8.90
2022-12-29T17:22:21.091Z,8.90
2022-12-29T17:24:47.696Z,8.90
2022-12-29T17:27:30.582Z,8.90
2022-12-29T17:29:58.408Z,8.90
2022-12-29T17:32:25.243Z,8.80
2022-12-29T17:34:51.786Z,8.70
2022-12-29T17:37:37.212Z,8.70
2022-12-29T17:40:04.899Z,8.70
2022-12-29T17:42:32.947Z,8.70
2022-12-29T17:45:01.190Z,8.80
2022-12-29T17:47:27.793Z,8.80
2022-12-29T17:49:55.194Z,8.80
2022-12-29T17:52:24.825Z,8.80
2022-12-29T17:54:51.875Z,8.70
2022-12-29T17:57:18.760Z,8.80
2022-12-29T17:59:45.435Z,8.80
2022-12-29T18:02:19.547Z,8.80
2022-12-29T18:04:46.191Z,8.80
2022-12-29T18:07:12.743Z,8.70
2022-12-29T18:09:39.289Z,8.50
2022-12-29T18:12:06.223Z,8.50
2022-12-29T18:14:32.791Z,8.50
2022-12-29T18:16:59.630Z,8.50
2022-12-29T18:19:29.656Z,8.50
2022-12-29T18:21:58.993Z,8.50
2022-12-29T18:24:27.314Z,8.50
2022-12-29T18:26:53.858Z,8.50
2022-12-29T18:29:20.563Z,8.60
2022-12-29T18:31:47.241Z,8.60
2022-12-29T18:34:14.477Z,8.60
2022-12-29T18:36:41.024Z,8.50
2022-12-29T18:39:07.559Z,8.50
2022-12-29T18:41:34.396Z,8.40
2022-12-29T18:44:00.941Z,8.40
2022-12-29T18:46:27.636Z,8.40
2022-12-29T18:48:54.977Z,8.40
2022-12-29T18:51:22.913Z,8.40
2022-12-29T18:53:49.551Z,8.50
2022-12-29T18:56:16.137Z,8.50
2022-12-29T18:58:42.711Z,8.40
2022-12-29T19:01:19.501Z,8.40
2022-12-29T19:03:46.196Z,8.40
2022-12-29T19:06:12.919Z,8.30
2022-12-29T19:08:39.500Z,8.30
2022-12-29T19:11:06.086Z,8.30
2022-12-29T19:13:33.921Z,8.20
2022-12-29T19:16:00.572Z,8.20
2022-12-29T19:18:44.617Z,8.10
2022-12-29T19:21:11.714Z,8.10
2022-12-29T19:23:38.354Z,8.00
2022-12-29T19:26:04.928Z,7.90
2022-12-29T19:28:31.552Z,7.90
2022-12-29T19:30:59.618Z,7.80
2022-12-29T19:33:26.456Z,7.80
2022-12-29T19:35:53.024Z,7.80
2022-12-29T19:38:19.588Z,7.70
2022-12-29T19:40:46.997Z,7.70
2022-12-29T19:43:13.916Z,7.60
2022-12-29T19:45:41.155Z,7.60
2022-12-29T19:48:08.101Z,7.50
2022-12-29T19:50:35.031Z,7.50
2022-12-29T19:53:05.342Z,7.50
2022-12-29T19:55:32.370Z,7.50
2022-12-29T19:57:59.113Z,7.50
2022-12-29T20:00:25.652Z,7.40
2022-12-29T20:02:52.365Z,7.40
2022-12-29T20:05:19.522Z,7.30
2022-12-29T20:07:46.138Z,7.30
2022-12-29T20:10:12.696Z,7.30
2022-12-29T20:12:39.327Z,7.30
2022-12-29T20:15:06.685Z,7.30
2022-12-29T20:18:10.899Z,7.30
2022-12-29T20:20:19.880Z,7.30
2022-12-29T20:22:46.439Z,7.20
2022-12-29T20:25:43.594Z,7.20
2022-12-29T20:27:59.880Z,7.20
2022-12-29T20:30:26.419Z,7.20
2022-12-29T20:32:53.011Z,7.30
2022-12-29T20:35:19.621Z,7.30
2022-12-29T20:37:46.232Z,7.30
2022-12-29T20:40:13.017Z,7.30
2022-12-29T20:42:39.581Z,7.30
2022-12-29T20:45:06.222Z,7.30
2022-12-29T20:47:32.773Z,7.40
2022-12-29T20:49:59.388Z,7.40
2022-12-29T20:52:26.021Z,7.50
2022-12-29T20:54:52.703Z,7.50
2022-12-29T20:57:19.468Z,7.60
2022-12-29T20:59:46.046Z,7.60
2022-12-29T21:02:22.184Z,7.60
2022-12-29T21:07:35.558Z,7.60
2022-12-29T21:10:02.098Z,7.70
2022-12-29T21:12:28.671Z,7.70
2022-12-29T21:14:55.209Z,7.80
2022-12-29T21:17:21.790Z,7.70
2022-12-29T21:19:48.677Z,7.70
2022-12-29T21:22:15.256Z,7.60
2022-12-29T21:24:41.824Z,7.60
2022-12-29T21:27:08.400Z,7.50
2022-12-29T21:29:34.959Z,7.50
2022-12-29T21:32:06.277Z,7.50
2022-12-29T21:34:34.676Z,7.40
2022-12-29T21:37:01.369Z,7.50
2022-12-29T21:39:27.964Z,7.50
2022-12-29T21:42:00.360Z,7.60
2022-12-29T21:44:45.907Z,7.50
2022-12-29T21:47:12.509Z,7.50
2022-12-29T21:49:39.055Z,7.60
2022-12-29T21:52:05.630Z,7.60
2022-12-29T21:54:51.084Z,7.70
2022-12-29T21:57:37.884Z,7.70
2022-12-29T22:00:23.593Z,7.70
2022-12-29T22:03:12.883Z,7.70
2022-12-29T22:06:03.712Z,7.70
2022-12-29T22:08:49.258Z,7.70
2022-12-29T22:11:34.598Z,7.70
2022-12-29T22:14:01.569Z,7.70
2022-12-29T22:16:28.232Z,7.80
2022-12-29T22:18:55.220Z,7.80
2022-12-29T22:21:21.798Z,7.80
2022-12-29T22:23:48.387Z,7.80
2022-12-29T22:26:15.328Z,7.70
2022-12-29T22:28:43.164Z,7.80
2022-12-29T22:31:29.190Z,7.70
2022-12-29T22:33:56.012Z,7.70
2022-12-29T22:36:22.902Z,7.70
2022-12-29T22:38:49.662Z,7.60
2022-12-29T22:41:16.218Z,7.60
2022-12-29T22:43:42.788Z,7.60
2022-12-29T22:46:09.456Z,7.50
2022-12-29T22:48:36.124Z,7.60
2022-12-29T22:51:02.749Z,7.50
2022-12-29T22:53:29.371Z,7.50
2022-12-29T22:56:06.039Z,7.60
2022-12-29T22:58:32.605Z,7.60
2022-12-29T23:00:59.203Z,7.50
2022-12-29T23:03:26.198Z,7.60
2022-12-29T23:05:56.916Z,7.50
2022-12-29T23:08:23.469Z,7.50
2022-12-29T23:10:50.026Z,7.40
2022-12-29T23:13:16.651Z,7.40
2022-12-29T23:15:43.314Z,7.30
2022-12-29T23:18:09.940Z,7.20
2022-12-29T23:20:36.510Z,7.20
2022-12-29T23:23:03.059Z,7.10
2022-12-29T23:25:29.599Z,7.10
2022-12-29T23:27:56.195Z,7.10
2022-12-29T23:30:22.772Z,7.10
2022-12-29T23:32:49.486Z,7.10
2022-12-29T23:35:16.043Z,7.10
2022-12-29T23:37:42.580Z,7.10
2022-12-29T23:40:09.339Z,7.10
2022-12-29T23:42:35.894Z,7.10
2022-12-29T23:45:02.472Z,7.10
2022-12-29T23:47:29.022Z,7.10
2022-12-29T23:49:55.566Z,7.10
2022-12-29T23:52:22.363Z,7.10
2022-12-29T23:54:49.491Z,7.10
2022-12-29T23:57:16.107Z,7.10
2022-12-29T23:59:42.666Z,7.10
